sensor_id;sensor_type;location;lat;lon;timestamp;P1;durP1;ratioP1;P2;durP2;ratioP2
17365;SDS011;8800;50.118;9.900;2023-03-29T00:00:04;5.80;;;2.50;;
17365;SDS011;8800;50.118;9.900;2023-03-29T00:02:33;6.60;;;2.20;;
17365;SDS011;8800;50.118;9.900;2023-03-29T00:04:59;4.78;;;2.60;;
17365;SDS011;8800;50.118;9.900;2023-03-29T00:07:29;6.05;;;2.58;;
17365;SDS011;8800;50.118;9.900;2023-03-29T00:09:57;5.35;;;2.35;;
17365;SDS011;8800;50.118;9.900;2023-03-29T00:12:24;5.65;;;2.47;;
17365;SDS011;8800;50.118;9.900;2023-03-29T00:14:51;10.85;;;2.47;;
17365;SDS011;8800;50.118;9.900;2023-03-29T00:17:17;6.57;;;2.20;;
17365;SDS011;8800;50.118;9.900;2023-03-29T00:19:44;5.22;;;2.22;;
17365;SDS011;8800;50.118;9.900;2023-03-29T00:22:11;6.55;;;2.50;;
17365;SDS011;8800;50.118;9.900;2023-03-29T00:24:39;7.35;;;2.28;;
17365;SDS011;8800;50.118;9.900;2023-03-29T00:27:06;6.82;;;2.65;;
17365;SDS011;8800;50.118;9.900;2023-03-29T00:29:32;5.57;;;2.20;;
17365;SDS011;8800;50.118;9.900;2023-03-29T00:31:59;4.65;;;2.22;;
17365;SDS011;8800;50.118;9.900;2023-03-29T00:34:25;5.85;;;2.60;;
17365;SDS011;8800;50.118;9.900;2023-03-29T00:36:54;8.80;;;2.53;;
17365;SDS011;8800;50.118;9.900;2023-03-29T00:39:22;4.85;;;2.28;;
17365;SDS011;8800;50.118;9.900;2023-03-29T00:41:50;6.13;;;2.40;;
17365;SDS011;8800;50.118;9.900;2023-03-29T00:47:02;3.72;;;2.35;;
17365;SDS011;8800;50.118;9.900;2023-03-29T00:49:28;6.57;;;2.33;;
17365;SDS011;8800;50.118;9.900;2023-03-29T00:51:55;6.63;;;2.50;;
17365;SDS011;8800;50.118;9.900;2023-03-29T00:54:21;8.20;;;2.63;;
17365;SDS011;8800;50.118;9.900;2023-03-29T00:56:48;6.15;;;2.40;;
17365;SDS011;8800;50.118;9.900;2023-03-29T00:59:18;7.70;;;2.10;;
17365;SDS011;8800;50.118;9.900;2023-03-29T01:01:46;4.90;;;2.05;;
17365;SDS011;8800;50.118;9.900;2023-03-29T01:04:16;4.30;;;2.03;;
17365;SDS011;8800;50.118;9.900;2023-03-29T01:06:44;4.65;;;1.92;;
17365;SDS011;8800;50.118;9.900;2023-03-29T01:09:11;4.65;;;2.30;;
17365;SDS011;8800;50.118;9.900;2023-03-29T01:11:39;7.00;;;2.42;;
17365;SDS011;8800;50.118;9.900;2023-03-29T01:14:09;8.80;;;2.60;;
17365;SDS011;8800;50.118;9.900;2023-03-29T01:16:40;5.00;;;2.38;;
17365;SDS011;8800;50.118;9.900;2023-03-29T01:19:08;7.78;;;2.50;;
17365;SDS011;8800;50.118;9.900;2023-03-29T01:21:36;6.55;;;2.90;;
17365;SDS011;8800;50.118;9.900;2023-03-29T01:26:52;6.65;;;2.80;;
17365;SDS011;8800;50.118;9.900;2023-03-29T01:29:22;5.53;;;2.67;;
17365;SDS011;8800;50.118;9.900;2023-03-29T01:31:50;7.88;;;2.63;;
17365;SDS011;8800;50.118;9.900;2023-03-29T01:34:19;5.70;;;2.65;;
17365;SDS011;8800;50.118;9.900;2023-03-29T01:36:47;6.22;;;2.63;;
17365;SDS011;8800;50.118;9.900;2023-03-29T01:39:15;7.38;;;2.63;;
17365;SDS011;8800;50.118;9.900;2023-03-29T01:41:45;7.32;;;2.63;;
17365;SDS011;8800;50.118;9.900;2023-03-29T01:44:12;8.90;;;2.80;;
17365;SDS011;8800;50.118;9.900;2023-03-29T01:46:44;6.30;;;2.40;;
17365;SDS011;8800;50.118;9.900;2023-03-29T01:49:11;7.47;;;2.70;;
17365;SDS011;8800;50.118;9.900;2023-03-29T01:51:40;6.95;;;2.88;;
17365;SDS011;8800;50.118;9.900;2023-03-29T01:54:08;4.60;;;2.33;;
17365;SDS011;8800;50.118;9.900;2023-03-29T01:56:37;8.13;;;2.05;;
17365;SDS011;8800;50.118;9.900;2023-03-29T01:59:06;5.40;;;2.15;;
17365;SDS011;8800;50.118;9.900;2023-03-29T02:01:33;6.25;;;2.22;;
17365;SDS011;8800;50.118;9.900;2023-03-29T02:04:05;6.65;;;2.20;;
17365;SDS011;8800;50.118;9.900;2023-03-29T02:06:33;4.97;;;2.53;;
17365;SDS011;8800;50.118;9.900;2023-03-29T02:09:01;4.05;;;1.60;;
17365;SDS011;8800;50.118;9.900;2023-03-29T02:11:28;3.88;;;1.95;;
17365;SDS011;8800;50.118;9.900;2023-03-29T02:13:55;6.45;;;1.98;;
17365;SDS011;8800;50.118;9.900;2023-03-29T02:16:22;4.35;;;1.90;;
17365;SDS011;8800;50.118;9.900;2023-03-29T02:18:49;8.80;;;1.98;;
17365;SDS011;8800;50.118;9.900;2023-03-29T02:21:20;6.90;;;2.25;;
17365;SDS011;8800;50.118;9.900;2023-03-29T02:23:49;4.70;;;1.80;;
17365;SDS011;8800;50.118;9.900;2023-03-29T02:26:18;5.80;;;1.52;;
17365;SDS011;8800;50.118;9.900;2023-03-29T02:28:45;6.10;;;2.22;;
17365;SDS011;8800;50.118;9.900;2023-03-29T02:31:12;4.43;;;1.80;;
17365;SDS011;8800;50.118;9.900;2023-03-29T02:33:42;3.95;;;1.75;;
17365;SDS011;8800;50.118;9.900;2023-03-29T02:36:13;6.22;;;2.25;;
17365;SDS011;8800;50.118;9.900;2023-03-29T02:38:43;4.65;;;1.77;;
17365;SDS011;8800;50.118;9.900;2023-03-29T02:41:10;2.95;;;1.70;;
17365;SDS011;8800;50.118;9.900;2023-03-29T02:43:37;3.15;;;1.90;;
17365;SDS011;8800;50.118;9.900;2023-03-29T02:46:04;10.77;;;2.03;;
17365;SDS011;8800;50.118;9.900;2023-03-29T02:48:31;4.18;;;1.80;;
17365;SDS011;8800;50.118;9.900;2023-03-29T02:51:00;5.65;;;1.80;;
17365;SDS011;8800;50.118;9.900;2023-03-29T02:53:29;4.30;;;2.00;;
17365;SDS011;8800;50.118;9.900;2023-03-29T02:55:58;5.10;;;1.80;;
17365;SDS011;8800;50.118;9.900;2023-03-29T02:58:26;6.45;;;2.15;;
17365;SDS011;8800;50.118;9.900;2023-03-29T03:00:53;4.53;;;2.13;;
17365;SDS011;8800;50.118;9.900;2023-03-29T03:03:21;6.20;;;1.88;;
17365;SDS011;8800;50.118;9.900;2023-03-29T03:05:47;5.57;;;2.17;;
17365;SDS011;8800;50.118;9.900;2023-03-29T03:08:14;7.30;;;2.10;;
17365;SDS011;8800;50.118;9.900;2023-03-29T03:10:40;5.80;;;2.20;;
17365;SDS011;8800;50.118;9.900;2023-03-29T03:13:08;4.53;;;2.05;;
17365;SDS011;8800;50.118;9.900;2023-03-29T03:15:35;7.53;;;1.75;;
17365;SDS011;8800;50.118;9.900;2023-03-29T03:18:06;6.40;;;2.20;;
17365;SDS011;8800;50.118;9.900;2023-03-29T03:20:33;4.57;;;1.77;;
17365;SDS011;8800;50.118;9.900;2023-03-29T03:23:00;6.53;;;2.30;;
17365;SDS011;8800;50.118;9.900;2023-03-29T03:25:27;7.78;;;2.30;;
17365;SDS011;8800;50.118;9.900;2023-03-29T03:27:54;3.13;;;1.65;;
17365;SDS011;8800;50.118;9.900;2023-03-29T03:30:22;5.72;;;2.63;;
17365;SDS011;8800;50.118;9.900;2023-03-29T03:32:49;5.90;;;2.42;;
17365;SDS011;8800;50.118;9.900;2023-03-29T03:35:16;7.40;;;2.70;;
17365;SDS011;8800;50.118;9.900;2023-03-29T03:37:43;7.30;;;2.80;;
17365;SDS011;8800;50.118;9.900;2023-03-29T03:40:09;6.80;;;2.25;;
17365;SDS011;8800;50.118;9.900;2023-03-29T03:42:37;8.23;;;2.75;;
17365;SDS011;8800;50.118;9.900;2023-03-29T03:45:05;5.63;;;2.50;;
17365;SDS011;8800;50.118;9.900;2023-03-29T03:47:33;6.40;;;2.35;;
17365;SDS011;8800;50.118;9.900;2023-03-29T03:50:01;7.15;;;2.72;;
17365;SDS011;8800;50.118;9.900;2023-03-29T03:52:27;8.13;;;2.67;;
17365;SDS011;8800;50.118;9.900;2023-03-29T03:54:54;4.57;;;2.30;;
17365;SDS011;8800;50.118;9.900;2023-03-29T03:57:20;4.43;;;2.50;;
17365;SDS011;8800;50.118;9.900;2023-03-29T03:59:48;3.92;;;2.50;;
17365;SDS011;8800;50.118;9.900;2023-03-29T04:02:15;5.95;;;2.38;;
17365;SDS011;8800;50.118;9.900;2023-03-29T04:04:43;6.63;;;3.10;;
17365;SDS011;8800;50.118;9.900;2023-03-29T04:07:10;7.90;;;2.85;;
17365;SDS011;8800;50.118;9.900;2023-03-29T04:09:38;5.78;;;2.13;;
17365;SDS011;8800;50.118;9.900;2023-03-29T04:12:05;6.55;;;2.65;;
17365;SDS011;8800;50.118;9.900;2023-03-29T04:14:31;5.47;;;2.25;;
17365;SDS011;8800;50.118;9.900;2023-03-29T04:16:58;5.40;;;2.10;;
17365;SDS011;8800;50.118;9.900;2023-03-29T04:19:25;5.03;;;2.50;;
17365;SDS011;8800;50.118;9.900;2023-03-29T04:21:53;7.50;;;2.35;;
17365;SDS011;8800;50.118;9.900;2023-03-29T04:24:21;7.05;;;2.30;;
17365;SDS011;8800;50.118;9.900;2023-03-29T04:26:48;5.90;;;2.60;;
17365;SDS011;8800;50.118;9.900;2023-03-29T04:29:14;5.32;;;2.65;;
17365;SDS011;8800;50.118;9.900;2023-03-29T04:31:41;7.35;;;3.40;;
17365;SDS011;8800;50.118;9.900;2023-03-29T04:34:07;7.88;;;3.10;;
17365;SDS011;8800;50.118;9.900;2023-03-29T04:36:34;6.40;;;3.00;;
17365;SDS011;8800;50.118;9.900;2023-03-29T04:39:02;9.07;;;3.60;;
17365;SDS011;8800;50.118;9.900;2023-03-29T04:41:28;6.40;;;3.90;;
17365;SDS011;8800;50.118;9.900;2023-03-29T04:43:56;9.73;;;3.67;;
17365;SDS011;8800;50.118;9.900;2023-03-29T04:46:23;8.65;;;4.05;;
17365;SDS011;8800;50.118;9.900;2023-03-29T04:48:50;6.63;;;3.63;;
17365;SDS011;8800;50.118;9.900;2023-03-29T04:51:16;8.85;;;3.85;;
17365;SDS011;8800;50.118;9.900;2023-03-29T04:53:44;5.95;;;3.10;;
17365;SDS011;8800;50.118;9.900;2023-03-29T04:56:12;12.38;;;3.58;;
17365;SDS011;8800;50.118;9.900;2023-03-29T04:58:38;6.18;;;3.08;;
17365;SDS011;8800;50.118;9.900;2023-03-29T05:01:06;7.18;;;2.85;;
17365;SDS011;8800;50.118;9.900;2023-03-29T05:03:33;10.50;;;3.47;;
17365;SDS011;8800;50.118;9.900;2023-03-29T05:06:00;10.25;;;3.53;;
17365;SDS011;8800;50.118;9.900;2023-03-29T05:08:32;8.68;;;3.20;;
17365;SDS011;8800;50.118;9.900;2023-03-29T05:10:59;8.55;;;3.25;;
17365;SDS011;8800;50.118;9.900;2023-03-29T05:13:27;5.10;;;2.75;;
17365;SDS011;8800;50.118;9.900;2023-03-29T05:15:53;8.82;;;3.70;;
17365;SDS011;8800;50.118;9.900;2023-03-29T05:18:21;12.60;;;4.00;;
17365;SDS011;8800;50.118;9.900;2023-03-29T05:20:49;7.00;;;3.60;;
17365;SDS011;8800;50.118;9.900;2023-03-29T05:23:17;8.50;;;3.22;;
17365;SDS011;8800;50.118;9.900;2023-03-29T05:25:44;10.20;;;3.35;;
17365;SDS011;8800;50.118;9.900;2023-03-29T05:28:10;10.35;;;3.63;;
17365;SDS011;8800;50.118;9.900;2023-03-29T05:30:39;9.00;;;3.58;;
17365;SDS011;8800;50.118;9.900;2023-03-29T05:33:05;6.82;;;3.30;;
17365;SDS011;8800;50.118;9.900;2023-03-29T05:35:32;10.30;;;3.50;;
17365;SDS011;8800;50.118;9.900;2023-03-29T05:37:59;10.52;;;3.10;;
17365;SDS011;8800;50.118;9.900;2023-03-29T05:40:26;6.82;;;2.80;;
17365;SDS011;8800;50.118;9.900;2023-03-29T05:42:53;6.88;;;3.10;;
17365;SDS011;8800;50.118;9.900;2023-03-29T05:45:20;7.72;;;3.10;;
17365;SDS011;8800;50.118;9.900;2023-03-29T05:47:48;7.85;;;2.97;;
17365;SDS011;8800;50.118;9.900;2023-03-29T05:50:15;4.90;;;2.97;;
17365;SDS011;8800;50.118;9.900;2023-03-29T05:52:42;8.32;;;2.90;;
17365;SDS011;8800;50.118;9.900;2023-03-29T05:55:09;7.82;;;3.30;;
17365;SDS011;8800;50.118;9.900;2023-03-29T05:57:35;7.88;;;3.10;;
17365;SDS011;8800;50.118;9.900;2023-03-29T06:00:02;8.57;;;3.90;;
17365;SDS011;8800;50.118;9.900;2023-03-29T06:02:41;9.65;;;3.95;;
17365;SDS011;8800;50.118;9.900;2023-03-29T06:05:09;11.65;;;4.10;;
17365;SDS011;8800;50.118;9.900;2023-03-29T06:07:36;12.90;;;3.72;;
17365;SDS011;8800;50.118;9.900;2023-03-29T06:10:03;8.85;;;3.80;;
17365;SDS011;8800;50.118;9.900;2023-03-29T06:12:30;7.05;;;3.42;;
17365;SDS011;8800;50.118;9.900;2023-03-29T06:14:56;6.60;;;2.97;;
17365;SDS011;8800;50.118;9.900;2023-03-29T06:17:28;7.63;;;3.28;;
17365;SDS011;8800;50.118;9.900;2023-03-29T06:19:55;6.70;;;3.30;;
17365;SDS011;8800;50.118;9.900;2023-03-29T06:22:23;6.72;;;3.30;;
17365;SDS011;8800;50.118;9.900;2023-03-29T06:24:49;8.15;;;3.35;;
17365;SDS011;8800;50.118;9.900;2023-03-29T06:27:16;8.25;;;3.20;;
17365;SDS011;8800;50.118;9.900;2023-03-29T06:29:43;6.97;;;3.03;;
17365;SDS011;8800;50.118;9.900;2023-03-29T06:32:09;7.25;;;3.47;;
17365;SDS011;8800;50.118;9.900;2023-03-29T06:34:36;5.32;;;2.88;;
17365;SDS011;8800;50.118;9.900;2023-03-29T06:37:03;8.35;;;3.38;;
17365;SDS011;8800;50.118;9.900;2023-03-29T06:39:31;4.90;;;3.17;;
17365;SDS011;8800;50.118;9.900;2023-03-29T06:41:58;10.18;;;3.95;;
17365;SDS011;8800;50.118;9.900;2023-03-29T06:44:24;7.68;;;3.75;;
17365;SDS011;8800;50.118;9.900;2023-03-29T06:46:52;9.07;;;3.50;;
17365;SDS011;8800;50.118;9.900;2023-03-29T06:49:18;5.85;;;3.10;;
17365;SDS011;8800;50.118;9.900;2023-03-29T06:51:45;5.03;;;3.20;;
17365;SDS011;8800;50.118;9.900;2023-03-29T06:54:12;5.15;;;2.75;;
17365;SDS011;8800;50.118;9.900;2023-03-29T06:56:40;5.55;;;2.80;;
17365;SDS011;8800;50.118;9.900;2023-03-29T06:59:07;8.38;;;2.60;;
17365;SDS011;8800;50.118;9.900;2023-03-29T07:01:34;15.38;;;6.47;;
17365;SDS011;8800;50.118;9.900;2023-03-29T07:04:01;15.07;;;6.88;;
17365;SDS011;8800;50.118;9.900;2023-03-29T07:06:31;17.88;;;7.65;;
17365;SDS011;8800;50.118;9.900;2023-03-29T07:08:58;24.67;;;9.00;;
17365;SDS011;8800;50.118;9.900;2023-03-29T07:11:25;14.93;;;5.05;;
17365;SDS011;8800;50.118;9.900;2023-03-29T07:13:54;18.95;;;5.13;;
17365;SDS011;8800;50.118;9.900;2023-03-29T07:16:20;9.40;;;5.10;;
17365;SDS011;8800;50.118;9.900;2023-03-29T07:18:47;9.95;;;5.15;;
17365;SDS011;8800;50.118;9.900;2023-03-29T07:21:14;12.18;;;5.35;;
17365;SDS011;8800;50.118;9.900;2023-03-29T07:23:40;13.10;;;7.07;;
17365;SDS011;8800;50.118;9.900;2023-03-29T07:26:07;11.55;;;5.65;;
17365;SDS011;8800;50.118;9.900;2023-03-29T07:28:34;10.38;;;5.15;;
17365;SDS011;8800;50.118;9.900;2023-03-29T07:31:03;10.63;;;4.20;;
17365;SDS011;8800;50.118;9.900;2023-03-29T07:33:31;8.55;;;4.20;;
17365;SDS011;8800;50.118;9.900;2023-03-29T07:35:57;11.07;;;4.60;;
17365;SDS011;8800;50.118;9.900;2023-03-29T07:38:24;13.07;;;5.90;;
17365;SDS011;8800;50.118;9.900;2023-03-29T07:40:51;12.75;;;5.07;;
17365;SDS011;8800;50.118;9.900;2023-03-29T07:43:18;12.32;;;5.00;;
17365;SDS011;8800;50.118;9.900;2023-03-29T07:45:44;10.27;;;4.63;;
17365;SDS011;8800;50.118;9.900;2023-03-29T07:48:12;13.27;;;4.20;;
17365;SDS011;8800;50.118;9.900;2023-03-29T07:50:39;7.97;;;3.67;;
17365;SDS011;8800;50.118;9.900;2023-03-29T07:53:07;9.50;;;3.45;;
17365;SDS011;8800;50.118;9.900;2023-03-29T07:55:33;9.88;;;4.15;;
17365;SDS011;8800;50.118;9.900;2023-03-29T07:58:00;10.02;;;4.18;;
17365;SDS011;8800;50.118;9.900;2023-03-29T08:00:27;6.47;;;3.63;;
17365;SDS011;8800;50.118;9.900;2023-03-29T08:02:54;14.25;;;4.20;;
17365;SDS011;8800;50.118;9.900;2023-03-29T08:05:22;8.77;;;3.28;;
17365;SDS011;8800;50.118;9.900;2023-03-29T08:07:49;9.93;;;3.50;;
17365;SDS011;8800;50.118;9.900;2023-03-29T08:10:16;8.50;;;4.00;;
17365;SDS011;8800;50.118;9.900;2023-03-29T08:12:43;5.95;;;3.33;;
17365;SDS011;8800;50.118;9.900;2023-03-29T08:15:09;11.40;;;4.65;;
17365;SDS011;8800;50.118;9.900;2023-03-29T08:17:37;8.40;;;3.88;;
17365;SDS011;8800;50.118;9.900;2023-03-29T08:20:04;8.25;;;3.47;;
17365;SDS011;8800;50.118;9.900;2023-03-29T08:22:33;9.15;;;4.25;;
17365;SDS011;8800;50.118;9.900;2023-03-29T08:24:59;8.48;;;3.35;;
17365;SDS011;8800;50.118;9.900;2023-03-29T08:27:26;12.10;;;4.35;;
17365;SDS011;8800;50.118;9.900;2023-03-29T08:29:53;5.45;;;2.88;;
17365;SDS011;8800;50.118;9.900;2023-03-29T08:32:19;7.60;;;3.13;;
17365;SDS011;8800;50.118;9.900;2023-03-29T08:34:46;6.57;;;3.22;;
17365;SDS011;8800;50.118;9.900;2023-03-29T08:37:13;9.02;;;4.18;;
17365;SDS011;8800;50.118;9.900;2023-03-29T08:39:41;18.30;;;7.82;;
17365;SDS011;8800;50.118;9.900;2023-03-29T08:42:13;9.05;;;2.90;;
17365;SDS011;8800;50.118;9.900;2023-03-29T08:44:46;8.32;;;2.88;;
17365;SDS011;8800;50.118;9.900;2023-03-29T08:47:17;6.20;;;3.50;;
17365;SDS011;8800;50.118;9.900;2023-03-29T08:49:45;7.18;;;3.22;;
17365;SDS011;8800;50.118;9.900;2023-03-29T08:52:16;5.43;;;2.97;;
17365;SDS011;8800;50.118;9.900;2023-03-29T08:54:46;7.45;;;2.90;;
17365;SDS011;8800;50.118;9.900;2023-03-29T08:57:16;4.28;;;2.60;;
17365;SDS011;8800;50.118;9.900;2023-03-29T08:59:46;4.20;;;2.58;;
17365;SDS011;8800;50.118;9.900;2023-03-29T09:02:15;4.65;;;2.58;;
17365;SDS011;8800;50.118;9.900;2023-03-29T09:04:42;7.47;;;3.15;;
17365;SDS011;8800;50.118;9.900;2023-03-29T09:07:10;7.38;;;3.03;;
17365;SDS011;8800;50.118;9.900;2023-03-29T09:09:36;6.85;;;2.78;;
17365;SDS011;8800;50.118;9.900;2023-03-29T09:12:08;6.75;;;3.30;;
17365;SDS011;8800;50.118;9.900;2023-03-29T09:14:51;7.50;;;3.08;;
17365;SDS011;8800;50.118;9.900;2023-03-29T09:17:24;6.00;;;3.15;;
17365;SDS011;8800;50.118;9.900;2023-03-29T09:19:55;5.60;;;3.08;;
17365;SDS011;8800;50.118;9.900;2023-03-29T09:22:27;6.28;;;3.05;;
17365;SDS011;8800;50.118;9.900;2023-03-29T09:25:03;7.18;;;3.22;;
17365;SDS011;8800;50.118;9.900;2023-03-29T09:27:33;4.85;;;2.83;;
17365;SDS011;8800;50.118;9.900;2023-03-29T09:30:05;7.18;;;3.33;;
17365;SDS011;8800;50.118;9.900;2023-03-29T09:32:36;6.95;;;2.40;;
17365;SDS011;8800;50.118;9.900;2023-03-29T09:35:09;4.68;;;2.30;;
17365;SDS011;8800;50.118;9.900;2023-03-29T09:37:42;7.13;;;3.08;;
17365;SDS011;8800;50.118;9.900;2023-03-29T09:40:09;12.90;;;4.43;;
17365;SDS011;8800;50.118;9.900;2023-03-29T09:42:38;5.68;;;2.42;;
17365;SDS011;8800;50.118;9.900;2023-03-29T09:45:06;4.78;;;2.55;;
17365;SDS011;8800;50.118;9.900;2023-03-29T09:47:33;5.32;;;2.65;;
17365;SDS011;8800;50.118;9.900;2023-03-29T09:50:01;6.18;;;2.28;;
17365;SDS011;8800;50.118;9.900;2023-03-29T09:52:28;4.95;;;2.47;;
17365;SDS011;8800;50.118;9.900;2023-03-29T09:54:54;9.02;;;2.60;;
17365;SDS011;8800;50.118;9.900;2023-03-29T09:57:21;7.97;;;3.85;;
17365;SDS011;8800;50.118;9.900;2023-03-29T09:59:49;4.82;;;2.58;;
17365;SDS011;8800;50.118;9.900;2023-03-29T10:02:17;11.52;;;3.58;;
17365;SDS011;8800;50.118;9.900;2023-03-29T10:04:50;4.65;;;2.40;;
17365;SDS011;8800;50.118;9.900;2023-03-29T10:07:18;5.78;;;2.97;;
17365;SDS011;8800;50.118;9.900;2023-03-29T10:09:45;5.53;;;2.30;;
17365;SDS011;8800;50.118;9.900;2023-03-29T10:12:14;6.35;;;2.40;;
17365;SDS011;8800;50.118;9.900;2023-03-29T10:14:41;3.90;;;2.10;;
17365;SDS011;8800;50.118;9.900;2023-03-29T10:17:12;3.97;;;2.03;;
17365;SDS011;8800;50.118;9.900;2023-03-29T10:19:45;5.55;;;2.10;;
17365;SDS011;8800;50.118;9.900;2023-03-29T10:22:13;4.70;;;2.20;;
17365;SDS011;8800;50.118;9.900;2023-03-29T10:24:46;5.32;;;2.50;;
17365;SDS011;8800;50.118;9.900;2023-03-29T10:27:12;4.68;;;2.47;;
17365;SDS011;8800;50.118;9.900;2023-03-29T10:29:39;5.07;;;2.25;;
17365;SDS011;8800;50.118;9.900;2023-03-29T10:32:15;4.38;;;1.88;;
17365;SDS011;8800;50.118;9.900;2023-03-29T10:34:42;4.90;;;2.05;;
17365;SDS011;8800;50.118;9.900;2023-03-29T10:37:10;3.75;;;2.08;;
17365;SDS011;8800;50.118;9.900;2023-03-29T10:39:38;4.43;;;2.10;;
17365;SDS011;8800;50.118;9.900;2023-03-29T10:42:05;5.35;;;2.00;;
17365;SDS011;8800;50.118;9.900;2023-03-29T10:44:33;6.05;;;1.90;;
17365;SDS011;8800;50.118;9.900;2023-03-29T10:47:06;6.70;;;2.13;;
17365;SDS011;8800;50.118;9.900;2023-03-29T10:49:39;5.57;;;2.70;;
17365;SDS011;8800;50.118;9.900;2023-03-29T10:52:06;6.13;;;2.45;;
17365;SDS011;8800;50.118;9.900;2023-03-29T10:54:33;5.75;;;2.05;;
17365;SDS011;8800;50.118;9.900;2023-03-29T10:57:00;4.80;;;1.80;;
17365;SDS011;8800;50.118;9.900;2023-03-29T10:59:29;6.50;;;2.20;;
17365;SDS011;8800;50.118;9.900;2023-03-29T11:02:00;6.38;;;2.15;;
17365;SDS011;8800;50.118;9.900;2023-03-29T11:04:33;5.05;;;2.45;;
17365;SDS011;8800;50.118;9.900;2023-03-29T11:07:11;4.60;;;1.83;;
17365;SDS011;8800;50.118;9.900;2023-03-29T11:09:41;6.93;;;2.20;;
17365;SDS011;8800;50.118;9.900;2023-03-29T11:12:13;5.75;;;1.88;;
17365;SDS011;8800;50.118;9.900;2023-03-29T11:14:44;6.35;;;1.90;;
17365;SDS011;8800;50.118;9.900;2023-03-29T11:17:18;3.78;;;1.63;;
17365;SDS011;8800;50.118;9.900;2023-03-29T11:19:52;6.35;;;1.90;;
17365;SDS011;8800;50.118;9.900;2023-03-29T11:22:23;4.90;;;1.90;;
17365;SDS011;8800;50.118;9.900;2023-03-29T11:25:02;5.93;;;2.17;;
17365;SDS011;8800;50.118;9.900;2023-03-29T11:27:33;3.75;;;1.70;;
17365;SDS011;8800;50.118;9.900;2023-03-29T11:30:04;4.80;;;1.65;;
17365;SDS011;8800;50.118;9.900;2023-03-29T11:32:33;6.28;;;1.92;;
17365;SDS011;8800;50.118;9.900;2023-03-29T11:35:05;4.53;;;1.67;;
17365;SDS011;8800;50.118;9.900;2023-03-29T11:37:36;4.70;;;1.75;;
17365;SDS011;8800;50.118;9.900;2023-03-29T11:40:24;3.72;;;1.70;;
17365;SDS011;8800;50.118;9.900;2023-03-29T11:42:54;8.13;;;4.35;;
17365;SDS011;8800;50.118;9.900;2023-03-29T11:45:22;5.55;;;2.20;;
17365;SDS011;8800;50.118;9.900;2023-03-29T11:47:51;3.20;;;1.70;;
17365;SDS011;8800;50.118;9.900;2023-03-29T11:50:18;5.38;;;1.63;;
17365;SDS011;8800;50.118;9.900;2023-03-29T11:52:48;4.88;;;1.67;;
17365;SDS011;8800;50.118;9.900;2023-03-29T11:55:16;5.13;;;1.67;;
17365;SDS011;8800;50.118;9.900;2023-03-29T11:57:44;3.65;;;1.63;;
17365;SDS011;8800;50.118;9.900;2023-03-29T12:00:13;3.97;;;1.70;;
17365;SDS011;8800;50.118;9.900;2023-03-29T12:02:41;3.08;;;1.40;;
17365;SDS011;8800;50.118;9.900;2023-03-29T12:05:10;3.75;;;1.90;;
17365;SDS011;8800;50.118;9.900;2023-03-29T12:07:39;2.65;;;1.65;;
17365;SDS011;8800;50.118;9.900;2023-03-29T12:10:14;2.85;;;1.55;;
17365;SDS011;8800;50.118;9.900;2023-03-29T12:12:43;3.67;;;1.63;;
17365;SDS011;8800;50.118;9.900;2023-03-29T12:15:12;3.08;;;1.55;;
17365;SDS011;8800;50.118;9.900;2023-03-29T12:17:42;2.83;;;1.13;;
17365;SDS011;8800;50.118;9.900;2023-03-29T12:20:12;2.85;;;1.30;;
17365;SDS011;8800;50.118;9.900;2023-03-29T12:22:39;2.13;;;1.20;;
17365;SDS011;8800;50.118;9.900;2023-03-29T12:25:06;3.83;;;1.38;;
17365;SDS011;8800;50.118;9.900;2023-03-29T12:27:39;2.30;;;1.00;;
17365;SDS011;8800;50.118;9.900;2023-03-29T12:30:22;10.80;;;2.92;;
17365;SDS011;8800;50.118;9.900;2023-03-29T12:32:58;3.15;;;0.98;;
17365;SDS011;8800;50.118;9.900;2023-03-29T12:35:29;2.55;;;0.80;;
17365;SDS011;8800;50.118;9.900;2023-03-29T12:38:02;1.17;;;0.90;;
17365;SDS011;8800;50.118;9.900;2023-03-29T12:40:35;2.25;;;0.90;;
17365;SDS011;8800;50.118;9.900;2023-03-29T12:43:05;5.82;;;1.10;;
17365;SDS011;8800;50.118;9.900;2023-03-29T12:45:33;35.08;;;10.45;;
17365;SDS011;8800;50.118;9.900;2023-03-29T12:48:02;4.05;;;1.45;;
17365;SDS011;8800;50.118;9.900;2023-03-29T12:50:31;4.18;;;2.53;;
17365;SDS011;8800;50.118;9.900;2023-03-29T12:53:02;2.33;;;1.23;;
17365;SDS011;8800;50.118;9.900;2023-03-29T12:55:30;3.88;;;1.38;;
17365;SDS011;8800;50.118;9.900;2023-03-29T12:57:59;2.90;;;1.30;;
17365;SDS011;8800;50.118;9.900;2023-03-29T13:00:30;3.22;;;1.83;;
17365;SDS011;8800;50.118;9.900;2023-03-29T13:02:58;1.80;;;1.30;;
17365;SDS011;8800;50.118;9.900;2023-03-29T13:05:26;2.08;;;1.33;;
17365;SDS011;8800;50.118;9.900;2023-03-29T13:07:53;3.47;;;1.00;;
17365;SDS011;8800;50.118;9.900;2023-03-29T13:10:32;2.55;;;1.17;;
17365;SDS011;8800;50.118;9.900;2023-03-29T13:13:06;3.20;;;1.30;;
17365;SDS011;8800;50.118;9.900;2023-03-29T13:15:35;2.42;;;1.00;;
17365;SDS011;8800;50.118;9.900;2023-03-29T13:18:04;2.90;;;1.38;;
17365;SDS011;8800;50.118;9.900;2023-03-29T13:20:35;1.88;;;1.02;;
17365;SDS011;8800;50.118;9.900;2023-03-29T13:23:12;5.55;;;2.20;;
17365;SDS011;8800;50.118;9.900;2023-03-29T13:25:44;4.38;;;2.15;;
17365;SDS011;8800;50.118;9.900;2023-03-29T13:28:13;1.77;;;0.88;;
17365;SDS011;8800;50.118;9.900;2023-03-29T13:30:45;4.95;;;1.20;;
17365;SDS011;8800;50.118;9.900;2023-03-29T13:33:16;2.08;;;1.40;;
17365;SDS011;8800;50.118;9.900;2023-03-29T13:35:48;2.47;;;1.10;;
17365;SDS011;8800;50.118;9.900;2023-03-29T13:38:17;3.97;;;1.25;;
17365;SDS011;8800;50.118;9.900;2023-03-29T13:40:45;2.15;;;1.10;;
17365;SDS011;8800;50.118;9.900;2023-03-29T13:43:19;4.47;;;0.90;;
17365;SDS011;8800;50.118;9.900;2023-03-29T13:46:01;4.18;;;1.20;;
17365;SDS011;8800;50.118;9.900;2023-03-29T13:48:29;4.72;;;1.27;;
17365;SDS011;8800;50.118;9.900;2023-03-29T13:50:58;2.47;;;1.15;;
17365;SDS011;8800;50.118;9.900;2023-03-29T13:53:27;1.88;;;1.15;;
17365;SDS011;8800;50.118;9.900;2023-03-29T13:55:55;4.80;;;1.48;;
17365;SDS011;8800;50.118;9.900;2023-03-29T13:58:25;2.35;;;1.30;;
17365;SDS011;8800;50.118;9.900;2023-03-29T14:00:58;3.05;;;1.55;;
17365;SDS011;8800;50.118;9.900;2023-03-29T14:03:26;4.78;;;1.63;;
17365;SDS011;8800;50.118;9.900;2023-03-29T14:05:56;2.25;;;0.90;;
17365;SDS011;8800;50.118;9.900;2023-03-29T14:08:24;2.55;;;1.20;;
17365;SDS011;8800;50.118;9.900;2023-03-29T14:10:51;3.13;;;1.08;;
17365;SDS011;8800;50.118;9.900;2023-03-29T14:13:19;3.13;;;1.10;;
17365;SDS011;8800;50.118;9.900;2023-03-29T14:15:48;1.98;;;1.20;;
17365;SDS011;8800;50.118;9.900;2023-03-29T14:18:17;2.60;;;1.30;;
17365;SDS011;8800;50.118;9.900;2023-03-29T14:20:45;1.55;;;0.95;;
17365;SDS011;8800;50.118;9.900;2023-03-29T14:23:14;2.92;;;1.20;;
17365;SDS011;8800;50.118;9.900;2023-03-29T14:25:42;4.53;;;1.30;;
17365;SDS011;8800;50.118;9.900;2023-03-29T14:28:16;2.58;;;1.05;;
17365;SDS011;8800;50.118;9.900;2023-03-29T14:30:44;3.65;;;1.00;;
17365;SDS011;8800;50.118;9.900;2023-03-29T14:33:11;1.55;;;1.17;;
17365;SDS011;8800;50.118;9.900;2023-03-29T14:35:39;2.28;;;1.42;;
17365;SDS011;8800;50.118;9.900;2023-03-29T14:38:05;3.67;;;1.35;;
17365;SDS011;8800;50.118;9.900;2023-03-29T14:40:35;2.38;;;1.55;;
17365;SDS011;8800;50.118;9.900;2023-03-29T14:43:02;5.28;;;1.95;;
17365;SDS011;8800;50.118;9.900;2023-03-29T14:45:30;3.40;;;1.25;;
17365;SDS011;8800;50.118;9.900;2023-03-29T14:47:57;4.95;;;1.35;;
17365;SDS011;8800;50.118;9.900;2023-03-29T14:50:24;3.25;;;1.20;;
17365;SDS011;8800;50.118;9.900;2023-03-29T14:52:53;2.67;;;1.30;;
17365;SDS011;8800;50.118;9.900;2023-03-29T14:55:21;4.93;;;1.83;;
17365;SDS011;8800;50.118;9.900;2023-03-29T14:57:49;4.25;;;1.70;;
17365;SDS011;8800;50.118;9.900;2023-03-29T15:00:26;3.33;;;1.20;;
17365;SDS011;8800;50.118;9.900;2023-03-29T15:02:54;2.58;;;1.45;;
17365;SDS011;8800;50.118;9.900;2023-03-29T15:05:23;3.55;;;1.33;;
17365;SDS011;8800;50.118;9.900;2023-03-29T15:07:50;8.45;;;2.40;;
17365;SDS011;8800;50.118;9.900;2023-03-29T15:10:21;13.13;;;3.95;;
17365;SDS011;8800;50.118;9.900;2023-03-29T15:12:48;3.72;;;1.58;;